Time;durP1;ratioP1;P1;durP2;ratioP2;P2;SDS_P1;SDS_P2;PMS_P1;PMS_P2;Temp;Humidity;BMP_temperature;BMP_pressure;BME280_temperature;BME280_humidity;BME280_pressure;Samples;Min_cycle;Max_cycle;Signal;HPM_P1;HPM_P2
2023/07/03 00:01:33;;;;;;;14.75;6.50;;;;;;;;;;5057542;28;20379;-67
2023/07/03 00:04:04;;;;;;;12.98;5.55;;;;;;;;;;5052498;28;20459;-65
2023/07/03 00:06:32;;;;;;;11.93;5.70;;;;;;;;;;5054757;28;20056;-63
2023/07/03 00:09:01;;;;;;;11.30;5.20;;;;;;;;;;5052316;28;20568;-63
2023/07/03 00:11:29;;;;;;;14.32;5.72;;;;;;;;;;5050341;28;20562;-64
2023/07/03 00:13:58;;;;;;;14.00;5.70;;;;;;;;;;5052120;28;20075;-63
2023/07/03 00:16:26;;;;;;;11.50;5.38;;;;;;;;;;5049780;28;20106;-67
2023/07/03 00:18:55;;;;;;;14.60;6.30;;;;;;;;;;5053896;28;20067;-63
2023/07/03 00:21:25;;;;;;;12.63;5.07;;;;;;;;;;5054123;28;20076;-63
2023/07/03 00:23:53;;;;;;;13.02;5.63;;;;;;;;;;5055582;28;20417;-64
2023/07/03 00:26:21;;;;;;;11.88;5.75;;;;;;;;;;5061276;28;20067;-64
2023/07/03 00:28:50;;;;;;;16.67;5.90;;;;;;;;;;5055690;28;20079;-64
2023/07/03 00:31:19;;;;;;;12.27;5.65;;;;;;;;;;5057992;28;20065;-64
2023/07/03 00:33:47;;;;;;;13.45;5.68;;;;;;;;;;5057191;28;20135;-64
2023/07/03 00:36:17;;;;;;;13.32;5.63;;;;;;;;;;5059569;28;20094;-64
2023/07/03 00:38:47;;;;;;;13.57;5.63;;;;;;;;;;5056356;28;20080;-64
2023/07/03 00:41:15;;;;;;;12.48;5.82;;;;;;;;;;5060140;28;20405;-63
2023/07/03 00:43:44;;;;;;;10.77;5.57;;;;;;;;;;5058574;28;20133;-68
2023/07/03 00:46:13;;;;;;;12.20;5.65;;;;;;;;;;5058261;28;20036;-68
2023/07/03 00:48:42;;;;;;;12.02;5.38;;;;;;;;;;5056426;28;20041;-64
2023/07/03 00:51:12;;;;;;;12.30;5.47;;;;;;;;;;5058397;28;20661;-63
2023/07/03 00:53:41;;;;;;;12.48;5.70;;;;;;;;;;5057380;28;20044;-64
2023/07/03 00:56:11;;;;;;;15.57;6.22;;;;;;;;;;5055670;28;20120;-66
2023/07/03 00:58:40;;;;;;;15.98;6.05;;;;;;;;;;5055670;28;20056;-63
2023/07/03 01:01:13;;;;;;;12.20;5.88;;;;;;;;;;5056582;28;20076;-64
2023/07/03 01:03:42;;;;;;;12.35;5.78;;;;;;;;;;5060872;28;20413;-65
2023/07/03 01:06:18;;;;;;;13.57;5.57;;;;;;;;;;5063195;28;20501;-63
2023/07/03 01:08:48;;;;;;;14.00;6.55;;;;;;;;;;5064010;28;20126;-63
2023/07/03 01:11:18;;;;;;;13.63;6.30;;;;;;;;;;5064658;28;20072;-63
2023/07/03 01:13:47;;;;;;;14.05;6.68;;;;;;;;;;5057336;28;20044;-68
2023/07/03 01:16:16;;;;;;;12.07;6.10;;;;;;;;;;5058768;28;20138;-67
2023/07/03 01:18:46;;;;;;;14.25;6.80;;;;;;;;;;5060606;28;20497;-64
2023/07/03 01:21:17;;;;;;;12.95;6.13;;;;;;;;;;5061073;28;20133;-62
2023/07/03 01:23:49;;;;;;;15.63;6.43;;;;;;;;;;5062760;28;20041;-64
2023/07/03 01:26:19;;;;;;;13.57;5.45;;;;;;;;;;5061844;28;20408;-63
2023/07/03 01:28:52;;;;;;;13.77;5.82;;;;;;;;;;5062546;28;20097;-64
2023/07/03 01:31:21;;;;;;;12.52;6.20;;;;;;;;;;5057585;28;20126;-64
2023/07/03 01:33:50;;;;;;;11.80;5.68;;;;;;;;;;5058530;28;20045;-68
2023/07/03 01:36:19;;;;;;;17.05;6.03;;;;;;;;;;5060638;28;20090;-65
2023/07/03 01:38:48;;;;;;;11.75;5.35;;;;;;;;;;5057949;28;20665;-64
2023/07/03 01:41:19;;;;;;;12.95;5.65;;;;;;;;;;5059625;28;20049;-64
2023/07/03 01:43:48;;;;;;;14.90;6.28;;;;;;;;;;5060211;28;20106;-63
2023/07/03 01:46:17;;;;;;;10.95;5.95;;;;;;;;;;5057551;28;20382;-63
2023/07/03 01:48:45;;;;;;;13.45;5.78;;;;;;;;;;5056645;28;20045;-69
2023/07/03 01:51:17;;;;;;;15.70;5.95;;;;;;;;;;5063383;28;20477;-65
2023/07/03 01:53:49;;;;;;;17.17;6.05;;;;;;;;;;5060565;28;20043;-63
2023/07/03 01:56:22;;;;;;;13.43;5.72;;;;;;;;;;5059561;28;20133;-63
2023/07/03 01:58:51;;;;;;;14.85;5.85;;;;;;;;;;5060922;28;20044;-64
2023/07/03 02:01:24;;;;;;;11.98;5.13;;;;;;;;;;5056972;28;20133;-64
2023/07/03 02:03:54;;;;;;;10.82;5.20;;;;;;;;;;5051561;28;20068;-63
2023/07/03 02:06:23;;;;;;;14.55;5.95;;;;;;;;;;5053704;28;20102;-65
2023/07/03 02:08:53;;;;;;;14.88;6.25;;;;;;;;;;5053317;28;20045;-64
2023/07/03 02:11:23;;;;;;;16.42;6.38;;;;;;;;;;5051820;28;20566;-63
2023/07/03 02:13:52;;;;;;;13.90;6.15;;;;;;;;;;5054021;28;20134;-63
2023/07/03 02:16:20;;;;;;;14.57;6.40;;;;;;;;;;5051583;28;20267;-66
2023/07/03 02:18:49;;;;;;;14.50;6.35;;;;;;;;;;5053823;28;20459;-64
2023/07/03 02:21:18;;;;;;;15.95;6.70;;;;;;;;;;5053693;28;20089;-63
2023/07/03 02:23:47;;;;;;;13.95;5.93;;;;;;;;;;5054739;28;21316;-64
2023/07/03 02:26:15;;;;;;;14.60;6.38;;;;;;;;;;5052342;28;20045;-65
2023/07/03 02:28:45;;;;;;;14.55;6.13;;;;;;;;;;5053799;28;20044;-64
2023/07/03 02:31:14;;;;;;;12.98;5.75;;;;;;;;;;5051245;28;20083;-65
2023/07/03 02:33:42;;;;;;;12.65;6.15;;;;;;;;;;5060390;28;20135;-64
2023/07/03 02:36:10;;;;;;;15.70;6.70;;;;;;;;;;5058034;28;20063;-62
2023/07/03 02:38:39;;;;;;;13.10;6.30;;;;;;;;;;5054935;28;20071;-63
2023/07/03 02:41:07;;;;;;;15.52;6.60;;;;;;;;;;5058883;28;20052;-65
2023/07/03 02:43:36;;;;;;;15.18;6.47;;;;;;;;;;5057326;28;20118;-64
2023/07/03 02:46:08;;;;;;;17.73;6.57;;;;;;;;;;5059116;28;20084;-64
2023/07/03 02:48:36;;;;;;;14.15;6.70;;;;;;;;;;5057311;28;20045;-62
2023/07/03 02:51:05;;;;;;;14.15;6.22;;;;;;;;;;5059021;28;20505;-68
2023/07/03 02:53:34;;;;;;;17.92;7.05;;;;;;;;;;5057389;28;20526;-68
2023/07/03 02:56:02;;;;;;;17.52;6.72;;;;;;;;;;5060679;28;20106;-63
2023/07/03 02:58:30;;;;;;;14.70;6.63;;;;;;;;;;5060465;28;20052;-63
2023/07/03 03:00:59;;;;;;;15.40;6.13;;;;;;;;;;5056577;28;20048;-62
2023/07/03 03:03:29;;;;;;;14.45;6.88;;;;;;;;;;5053793;28;20075;-64
2023/07/03 03:05:57;;;;;;;16.10;7.75;;;;;;;;;;5053699;28;20036;-69
2023/07/03 03:08:26;;;;;;;24.13;7.72;;;;;;;;;;5057470;28;20125;-68
2023/07/03 03:10:55;;;;;;;17.40;7.50;;;;;;;;;;5057084;28;20088;-64
2023/07/03 03:13:23;;;;;;;18.90;6.93;;;;;;;;;;5058937;28;20491;-66
2023/07/03 03:15:52;;;;;;;18.63;7.35;;;;;;;;;;5052822;28;20127;-64
2023/07/03 03:18:21;;;;;;;13.48;6.40;;;;;;;;;;5058988;28;20057;-64
2023/07/03 03:20:50;;;;;;;16.13;6.35;;;;;;;;;;5055587;28;20084;-62
2023/07/03 03:23:19;;;;;;;17.52;6.85;;;;;;;;;;5053629;28;20058;-62
2023/07/03 03:25:47;;;;;;;21.25;7.35;;;;;;;;;;5055341;28;20113;-64
2023/07/03 03:28:16;;;;;;;14.02;6.60;;;;;;;;;;5055022;28;20041;-63
2023/07/03 03:30:44;;;;;;;17.77;6.50;;;;;;;;;;5052215;28;20129;-67
2023/07/03 03:33:13;;;;;;;13.75;5.85;;;;;;;;;;5052361;28;20056;-63
2023/07/03 03:35:41;;;;;;;15.20;6.30;;;;;;;;;;5056108;28;20627;-62
2023/07/03 03:38:11;;;;;;;15.73;6.88;;;;;;;;;;5055899;28;20056;-64
2023/07/03 03:40:39;;;;;;;17.50;6.63;;;;;;;;;;5051945;28;20049;-64
2023/07/03 03:43:07;;;;;;;17.30;7.40;;;;;;;;;;5054400;28;20086;-68
2023/07/03 03:45:36;;;;;;;17.08;6.32;;;;;;;;;;5056394;28;20094;-63
2023/07/03 03:48:04;;;;;;;16.02;6.13;;;;;;;;;;5050131;28;20149;-63
2023/07/03 03:50:33;;;;;;;13.82;6.03;;;;;;;;;;5056781;28;20456;-63
2023/07/03 03:53:01;;;;;;;16.63;7.07;;;;;;;;;;5054123;28;20462;-63
2023/07/03 03:55:31;;;;;;;18.30;7.47;;;;;;;;;;5058263;28;20083;-64
2023/07/03 03:57:59;;;;;;;18.10;6.68;;;;;;;;;;5050882;28;20563;-63
2023/07/03 04:00:29;;;;;;;17.42;6.85;;;;;;;;;;5054765;28;20048;-69
2023/07/03 04:02:58;;;;;;;14.73;6.25;;;;;;;;;;5053369;28;20045;-65
2023/07/03 04:05:26;;;;;;;13.60;6.40;;;;;;;;;;5053399;28;20347;-63
2023/07/03 04:07:55;;;;;;;17.08;7.00;;;;;;;;;;5056590;28;20052;-65
2023/07/03 04:10:24;;;;;;;23.42;7.00;;;;;;;;;;5056538;28;20056;-64
2023/07/03 04:12:54;;;;;;;23.50;7.75;;;;;;;;;;5057931;28;20398;-65
2023/07/03 04:15:23;;;;;;;19.13;6.93;;;;;;;;;;5049626;28;20164;-64
2023/07/03 04:17:51;;;;;;;16.20;7.50;;;;;;;;;;5056497;28;20059;-63
2023/07/03 04:20:20;;;;;;;15.88;6.53;;;;;;;;;;5058327;28;20317;-63
2023/07/03 04:22:48;;;;;;;17.30;6.97;;;;;;;;;;5054393;28;20105;-65
2023/07/03 04:25:17;;;;;;;18.92;7.03;;;;;;;;;;5048718;28;20164;-67
2023/07/03 04:27:45;;;;;;;15.82;6.50;;;;;;;;;;5050470;28;20056;-64
2023/07/03 04:30:15;;;;;;;16.25;6.90;;;;;;;;;;5048613;28;20045;-65
2023/07/03 04:32:54;;;;;;;17.00;7.25;;;;;;;;;;5055502;28;20501;-67
2023/07/03 04:35:23;;;;;;;18.10;7.13;;;;;;;;;;5059433;28;20516;-62
2023/07/03 04:37:51;;;;;;;18.63;7.15;;;;;;;;;;5062074;28;20481;-62
2023/07/03 04:40:20;;;;;;;14.75;6.80;;;;;;;;;;5059672;28;20110;-64
2023/07/03 04:42:48;;;;;;;16.15;6.80;;;;;;;;;;5054747;28;20088;-63
2023/07/03 04:45:21;;;;;;;15.57;6.75;;;;;;;;;;5047697;28;20080;-69
2023/07/03 04:47:49;;;;;;;16.60;6.57;;;;;;;;;;5054465;28;20056;-66
2023/07/03 04:50:18;;;;;;;19.45;7.22;;;;;;;;;;5054227;28;20076;-62
2023/07/03 04:52:49;;;;;;;17.95;6.38;;;;;;;;;;5055049;28;20185;-63
2023/07/03 04:55:18;;;;;;;18.65;7.15;;;;;;;;;;5053364;28;20084;-64
2023/07/03 04:57:46;;;;;;;14.77;5.97;;;;;;;;;;5058465;28;20130;-67
2023/07/03 05:00:16;;;;;;;15.57;7.72;;;;;;;;;;5053913;28;20076;-67
2023/07/03 05:02:47;;;;;;;17.23;6.50;;;;;;;;;;5052518;28;20136;-62
2023/07/03 05:05:16;;;;;;;17.75;7.03;;;;;;;;;;5050258;28;20048;-67
2023/07/03 05:07:45;;;;;;;17.70;6.32;;;;;;;;;;5055451;28;20481;-67
2023/07/03 05:10:14;;;;;;;19.52;7.03;;;;;;;;;;5053834;28;20045;-65
2023/07/03 05:12:43;;;;;;;17.65;7.53;;;;;;;;;;5059449;28;20059;-67
2023/07/03 05:15:13;;;;;;;20.27;7.13;;;;;;;;;;5057178;28;20246;-64
2023/07/03 05:17:41;;;;;;;19.73;8.10;;;;;;;;;;5050971;28;20063;-62
2023/07/03 05:20:13;;;;;;;19.35;8.43;;;;;;;;;;5056911;28;20049;-64
2023/07/03 05:22:43;;;;;;;17.90;6.65;;;;;;;;;;5055595;28;20078;-63
2023/07/03 05:25:12;;;;;;;17.48;7.18;;;;;;;;;;5056488;28;20086;-62
2023/07/03 05:27:40;;;;;;;13.13;6.00;;;;;;;;;;5056993;28;20081;-63
2023/07/03 05:30:10;;;;;;;22.30;7.45;;;;;;;;;;5060157;28;20067;-64
2023/07/03 05:32:39;;;;;;;21.70;6.90;;;;;;;;;;5061296;28;20700;-63
2023/07/03 05:35:08;;;;;;;23.08;7.40;;;;;;;;;;5058491;28;20052;-63
2023/07/03 05:37:37;;;;;;;17.08;7.30;;;;;;;;;;5059141;28;20082;-63
2023/07/03 05:40:07;;;;;;;23.23;7.72;;;;;;;;;;5058480;28;20102;-69
2023/07/03 05:42:36;;;;;;;23.08;7.78;;;;;;;;;;5058221;28;20102;-63
2023/07/03 05:45:05;;;;;;;15.57;6.65;;;;;;;;;;5058474;28;20044;-66
2023/07/03 05:47:35;;;;;;;20.50;7.90;;;;;;;;;;5053958;28;20048;-65
2023/07/03 05:50:03;;;;;;;18.88;7.70;;;;;;;;;;5057259;28;20657;-67
2023/07/03 05:52:33;;;;;;;19.90;7.45;;;;;;;;;;5055668;28;20080;-68
2023/07/03 05:55:04;;;;;;;18.38;6.95;;;;;;;;;;5059084;28;20056;-64
2023/07/03 05:57:33;;;;;;;20.38;6.80;;;;;;;;;;5056012;28;20101;-64
2023/07/03 06:00:03;;;;;;;19.55;7.60;;;;;;;;;;5060862;28;20166;-64
2023/07/03 06:02:32;;;;;;;21.88;6.35;;;;;;;;;;5057294;28;20676;-67
2023/07/03 06:05:00;;;;;;;16.15;6.85;;;;;;;;;;5058074;28;20137;-69
2023/07/03 06:07:29;;;;;;;16.00;6.57;;;;;;;;;;5056521;28;20609;-64
2023/07/03 06:09:57;;;;;;;17.45;7.32;;;;;;;;;;5056547;28;20114;-65
2023/07/03 06:12:29;;;;;;;18.02;7.55;;;;;;;;;;5054463;28;20048;-68
2023/07/03 06:14:58;;;;;;;15.80;6.57;;;;;;;;;;5024914;28;20110;-66
2023/07/03 06:17:26;;;;;;;17.33;6.35;;;;;;;;;;5059621;28;20071;-68
2023/07/03 06:19:55;;;;;;;17.65;6.78;;;;;;;;;;5057567;28;20055;-64
2023/07/03 06:22:24;;;;;;;13.40;5.90;;;;;;;;;;5058017;28;20496;-66
2023/07/03 06:24:52;;;;;;;17.88;7.22;;;;;;;;;;5058961;28;20068;-65
2023/07/03 06:27:21;;;;;;;19.88;6.50;;;;;;;;;;5059935;28;20056;-64
2023/07/03 06:29:50;;;;;;;16.00;6.82;;;;;;;;;;5057768;28;20060;-69
2023/07/03 06:32:19;;;;;;;16.63;6.45;;;;;;;;;;5059162;28;20410;-68
2023/07/03 06:34:47;;;;;;;15.02;5.72;;;;;;;;;;5052876;28;20718;-66
2023/07/03 06:37:16;;;;;;;13.05;5.63;;;;;;;;;;5058307;28;20037;-64
2023/07/03 06:39:44;;;;;;;14.63;6.03;;;;;;;;;;5060238;28;20048;-67
2023/07/03 06:42:13;;;;;;;17.00;5.78;;;;;;;;;;5055806;28;20131;-64
2023/07/03 06:44:43;;;;;;;16.63;6.10;;;;;;;;;;5056509;28;20068;-64
2023/07/03 06:47:13;;;;;;;14.52;6.03;;;;;;;;;;5059110;28;20079;-65
2023/07/03 06:49:41;;;;;;;16.23;6.10;;;;;;;;;;5057197;28;20056;-64
2023/07/03 06:52:11;;;;;;;14.75;5.53;;;;;;;;;;5059989;28;21104;-63
2023/07/03 06:54:39;;;;;;;12.25;5.50;;;;;;;;;;5058617;28;20145;-69
2023/07/03 06:57:07;;;;;;;15.88;6.35;;;;;;;;;;5057267;28;20521;-65
2023/07/03 06:59:36;;;;;;;13.70;5.28;;;;;;;;;;5058225;28;20052;-65
2023/07/03 07:02:05;;;;;;;16.38;6.28;;;;;;;;;;5059304;28;20049;-66
2023/07/03 07:04:35;;;;;;;16.20;6.50;;;;;;;;;;5051990;28;20055;-67
2023/07/03 07:07:04;;;;;;;16.40;6.28;;;;;;;;;;5056478;28;20494;-69
2023/07/03 07:09:32;;;;;;;14.38;5.90;;;;;;;;;;5055317;28;20049;-68
2023/07/03 07:12:01;;;;;;;16.33;6.30;;;;;;;;;;5059209;28;20497;-65
2023/07/03 07:14:29;;;;;;;15.02;5.90;;;;;;;;;;5056918;28;20261;-68
2023/07/03 07:16:59;;;;;;;14.07;5.85;;;;;;;;;;5058533;28;20493;-69
2023/07/03 07:19:27;;;;;;;16.95;6.88;;;;;;;;;;5055650;28;20059;-66
2023/07/03 07:21:57;;;;;;;18.08;6.70;;;;;;;;;;5059603;28;20067;-65
2023/07/03 07:24:27;;;;;;;18.45;5.75;;;;;;;;;;5056368;28;20064;-65
2023/07/03 07:26:58;;;;;;;14.48;5.70;;;;;;;;;;5053669;28;20080;-65
2023/07/03 07:29:27;;;;;;;13.82;6.18;;;;;;;;;;5054787;28;20052;-70
2023/07/03 07:31:56;;;;;;;19.50;6.35;;;;;;;;;;5054891;28;20048;-69
2023/07/03 07:34:24;;;;;;;14.43;5.93;;;;;;;;;;5051893;28;20056;-67
2023/07/03 07:36:53;;;;;;;16.70;5.63;;;;;;;;;;5057007;28;20439;-65
2023/07/03 07:39:23;;;;;;;17.17;6.55;;;;;;;;;;5060368;28;20048;-64
2023/07/03 07:41:52;;;;;;;16.33;6.00;;;;;;;;;;5054996;28;20048;-63
2023/07/03 07:44:20;;;;;;;16.95;6.90;;;;;;;;;;5055308;28;20352;-62
2023/07/03 07:46:49;;;;;;;13.77;6.53;;;;;;;;;;5059271;28;20092;-64
2023/07/03 07:49:17;;;;;;;13.88;6.38;;;;;;;;;;5057177;28;20037;-68
2023/07/03 07:51:45;;;;;;;17.42;6.18;;;;;;;;;;5054440;28;20048;-67
2023/07/03 07:54:14;;;;;;;14.88;5.93;;;;;;;;;;5055390;28;20475;-67
2023/07/03 07:56:44;;;;;;;16.88;6.30;;;;;;;;;;5059352;28;20739;-63
2023/07/03 07:59:12;;;;;;;12.32;5.65;;;;;;;;;;5057614;28;20044;-65
2023/07/03 08:01:40;;;;;;;12.45;5.72;;;;;;;;;;5055134;28;20048;-64
2023/07/03 08:04:09;;;;;;;11.85;5.75;;;;;;;;;;5052128;28;20139;-65
2023/07/03 08:06:38;;;;;;;14.95;6.55;;;;;;;;;;5053881;28;20071;-66
2023/07/03 08:09:06;;;;;;;17.40;5.95;;;;;;;;;;5058840;28;20044;-64
2023/07/03 08:11:34;;;;;;;15.82;6.60;;;;;;;;;;5055643;28;20049;-64
2023/07/03 08:14:04;;;;;;;15.45;6.75;;;;;;;;;;5052988;28;20052;-65
2023/07/03 08:16:32;;;;;;;14.82;6.20;;;;;;;;;;5057419;28;20090;-65
2023/07/03 08:19:01;;;;;;;16.92;6.50;;;;;;;;;;5055638;28;20590;-64
2023/07/03 08:21:29;;;;;;;16.27;6.13;;;;;;;;;;5057853;28;20098;-65
2023/07/03 08:23:58;;;;;;;16.67;6.38;;;;;;;;;;5056961;28;20556;-66
2023/07/03 08:26:26;;;;;;;14.20;6.63;;;;;;;;;;5053167;28;20063;-67
2023/07/03 08:28:55;;;;;;;16.05;6.20;;;;;;;;;;5055198;28;20059;-65
2023/07/03 08:31:24;;;;;;;18.67;6.10;;;;;;;;;;5057368;28;20052;-67
2023/07/03 08:33:54;;;;;;;16.05;5.95;;;;;;;;;;5053581;28;20048;-66
2023/07/03 08:36:23;;;;;;;14.98;5.63;;;;;;;;;;5058095;28;20053;-65
2023/07/03 08:38:54;;;;;;;14.55;5.22;;;;;;;;;;5054579;28;20088;-64
2023/07/03 08:41:23;;;;;;;14.82;6.68;;;;;;;;;;5053649;28;20110;-65
2023/07/03 08:43:53;;;;;;;12.18;5.68;;;;;;;;;;5054412;28;20044;-63
2023/07/03 08:46:24;;;;;;;12.88;6.07;;;;;;;;;;5056001;28;20082;-64
2023/07/03 08:48:55;;;;;;;15.52;6.68;;;;;;;;;;5058659;28;20051;-64
2023/07/03 08:51:26;;;;;;;9.57;5.18;;;;;;;;;;5057507;28;20040;-69
2023/07/03 08:53:56;;;;;;;10.13;4.88;;;;;;;;;;5055812;28;20056;-65
2023/07/03 08:56:26;;;;;;;10.98;4.95;;;;;;;;;;5059914;28;20135;-64
2023/07/03 08:58:56;;;;;;;10.75;4.63;;;;;;;;;;5061309;28;20056;-69
2023/07/03 09:01:26;;;;;;;9.30;4.57;;;;;;;;;;5059851;28;20511;-66
2023/07/03 09:04:02;;;;;;;9.57;4.90;;;;;;;;;;5056605;28;20478;-65
2023/07/03 09:06:33;;;;;;;11.70;4.60;;;;;;;;;;5060272;28;20391;-64
2023/07/03 09:09:04;;;;;;;16.45;5.30;;;;;;;;;;5057296;28;20041;-65
2023/07/03 09:11:34;;;;;;;11.05;4.03;;;;;;;;;;5061557;28;20083;-63
2023/07/03 09:14:04;;;;;;;9.52;4.55;;;;;;;;;;5058595;28;20072;-66
2023/07/03 09:16:32;;;;;;;10.20;4.35;;;;;;;;;;5057663;28;20048;-64
2023/07/03 09:19:05;;;;;;;13.45;3.95;;;;;;;;;;5061645;28;20080;-64
2023/07/03 09:21:35;;;;;;;14.02;4.47;;;;;;;;;;5060456;28;20056;-65
2023/07/03 09:24:07;;;;;;;12.10;4.13;;;;;;;;;;5056837;28;20048;-66
2023/07/03 09:26:39;;;;;;;12.20;4.82;;;;;;;;;;5058024;28;20456;-67
2023/07/03 09:29:08;;;;;;;10.15;4.03;;;;;;;;;;5056903;28;20467;-68
2023/07/03 09:31:36;;;;;;;9.30;3.78;;;;;;;;;;5063176;28;20588;-64
2023/07/03 09:34:06;;;;;;;9.38;3.75;;;;;;;;;;5059558;28;20056;-63
2023/07/03 09:36:37;;;;;;;9.20;3.90;;;;;;;;;;5060088;28;20040;-67
2023/07/03 09:39:10;;;;;;;11.27;4.18;;;;;;;;;;5059050;28;20556;-64
2023/07/03 09:41:39;;;;;;;11.68;3.95;;;;;;;;;;5057978;28;20226;-66
2023/07/03 09:44:08;;;;;;;6.57;3.20;;;;;;;;;;5056709;28;20086;-66
2023/07/03 09:46:38;;;;;;;6.97;3.33;;;;;;;;;;5058866;28;20497;-63
2023/07/03 09:49:15;;;;;;;7.00;3.83;;;;;;;;;;5059079;28;20045;-64
2023/07/03 09:51:44;;;;;;;8.18;3.63;;;;;;;;;;5058898;28;20061;-64
2023/07/03 09:54:18;;;;;;;10.43;4.22;;;;;;;;;;5058766;28;20145;-64
2023/07/03 09:56:49;;;;;;;6.57;3.53;;;;;;;;;;5058746;28;20041;-63
2023/07/03 09:59:19;;;;;;;9.25;3.60;;;;;;;;;;5056922;28;20104;-64
2023/07/03 10:01:48;;;;;;;8.57;3.05;;;;;;;;;;5059770;28;20156;-65
2023/07/03 10:04:21;;;;;;;8.80;3.53;;;;;;;;;;5059170;28;20486;-66
2023/07/03 10:06:58;;;;;;;12.43;4.05;;;;;;;;;;5060427;28;20129;-64
2023/07/03 10:09:28;;;;;;;8.90;4.18;;;;;;;;;;5057036;28;20044;-64
2023/07/03 10:12:01;;;;;;;7.75;3.65;;;;;;;;;;5058832;28;20555;-65
2023/07/03 10:14:33;;;;;;;13.57;3.92;;;;;;;;;;5056039;28;26308;-67
2023/07/03 10:17:02;;;;;;;7.68;3.53;;;;;;;;;;5057365;28;20068;-63
2023/07/03 10:19:34;;;;;;;11.88;3.70;;;;;;;;;;5058917;28;20055;-66
2023/07/03 10:22:04;;;;;;;9.75;4.13;;;;;;;;;;5058937;28;20688;-64
2023/07/03 10:24:35;;;;;;;13.45;4.32;;;;;;;;;;5056980;28;20047;-66
2023/07/03 10:27:04;;;;;;;12.70;4.13;;;;;;;;;;5061104;28;20102;-67
2023/07/03 10:29:37;;;;;;;7.97;3.55;;;;;;;;;;5057660;28;20048;-64
2023/07/03 10:32:09;;;;;;;7.07;3.75;;;;;;;;;;5059671;28;20055;-67
2023/07/03 10:34:42;;;;;;;11.75;4.15;;;;;;;;;;5058801;28;20066;-65
2023/07/03 10:37:12;;;;;;;7.60;3.40;;;;;;;;;;5056551;28;20505;-67
2023/07/03 10:39:42;;;;;;;8.63;3.65;;;;;;;;;;5059861;28;20106;-63
2023/07/03 10:42:12;;;;;;;8.77;4.07;;;;;;;;;;5060578;28;20124;-63
2023/07/03 10:44:42;;;;;;;9.85;3.80;;;;;;;;;;5056317;28;20048;-62
2023/07/03 10:47:17;;;;;;;9.85;4.10;;;;;;;;;;5057668;28;20067;-64
2023/07/03 10:49:47;;;;;;;9.23;3.65;;;;;;;;;;5058786;28;20126;-64
2023/07/03 10:52:26;;;;;;;8.65;3.65;;;;;;;;;;5060825;28;20045;-63
2023/07/03 10:55:01;;;;;;;7.60;3.60;;;;;;;;;;5059862;28;20041;-69
2023/07/03 10:57:31;;;;;;;7.88;3.75;;;;;;;;;;5056005;28;20485;-67
2023/07/03 11:00:07;;;;;;;9.30;3.85;;;;;;;;;;5055663;28;20140;-66
2023/07/03 11:02:41;;;;;;;11.57;3.75;;;;;;;;;;5057656;28;20362;-63
2023/07/03 11:05:16;;;;;;;6.88;3.78;;;;;;;;;;5054411;28;20072;-65
2023/07/03 11:07:48;;;;;;;12.20;3.30;;;;;;;;;;5059605;28;20060;-65
2023/07/03 11:10:19;;;;;;;5.75;3.17;;;;;;;;;;5058720;28;20041;-65
2023/07/03 11:12:53;;;;;;;9.23;3.80;;;;;;;;;;5057220;28;20049;-64
2023/07/03 11:15:28;;;;;;;6.97;3.70;;;;;;;;;;5059289;28;20060;-63
2023/07/03 11:18:01;;;;;;;9.30;3.90;;;;;;;;;;5058904;28;20041;-65
2023/07/03 11:20:35;;;;;;;9.00;3.15;;;;;;;;;;5054587;28;20037;-63
2023/07/03 11:23:13;;;;;;;12.32;3.60;;;;;;;;;;5053380;28;20044;-65
2023/07/03 11:25:45;;;;;;;10.50;3.65;;;;;;;;;;5053836;28;20051;-63
2023/07/03 11:28:34;;;;;;;7.57;3.63;;;;;;;;;;5060810;28;20050;-67
2023/07/03 11:31:04;;;;;;;9.80;4.00;;;;;;;;;;5056005;28;20045;-64
2023/07/03 11:33:33;;;;;;;7.57;3.50;;;;;;;;;;5054333;28;21428;-64
2023/07/03 11:36:06;;;;;;;11.05;4.47;;;;;;;;;;5054211;28;20734;-65
2023/07/03 11:38:36;;;;;;;6.97;4.05;;;;;;;;;;5053412;28;20472;-67
2023/07/03 11:41:11;;;;;;;9.30;4.10;;;;;;;;;;5055034;28;20111;-67
2023/07/03 11:43:42;;;;;;;;;;;;;;;;;;5052959;28;20064;-65
2023/07/03 11:46:12;;;;;;;7.80;3.22;;;;;;;;;;5059268;28;20448;-65
2023/07/03 11:48:51;;;;;;;9.80;3.70;;;;;;;;;;5059317;28;20447;-65
2023/07/03 11:51:32;;;;;;;8.90;3.42;;;;;;;;;;5054544;28;20094;-68
2023/07/03 11:54:01;;;;;;;9.13;3.40;;;;;;;;;;5057308;28;20114;-68
2023/07/03 11:56:44;;;;;;;11.13;3.22;;;;;;;;;;5058443;28;20040;-66
2023/07/03 11:59:14;;;;;;;7.70;3.45;;;;;;;;;;5056333;28;20052;-65
2023/07/03 12:01:42;;;;;;;8.38;3.60;;;;;;;;;;5056741;28;20052;-68
2023/07/03 12:04:11;;;;;;;9.63;4.00;;;;;;;;;;5057182;28;20077;-64
2023/07/03 12:06:50;;;;;;;12.98;3.70;;;;;;;;;;5056186;28;20088;-64
2023/07/03 12:09:26;;;;;;;8.20;3.63;;;;;;;;;;5054598;28;20521;-64
2023/07/03 12:12:26;;;;;;;8.85;4.20;;;;;;;;;;5055246;28;20048;-63
2023/07/03 12:14:56;;;;;;;8.82;3.45;;;;;;;;;;4978564;28;20557;-64
2023/07/03 12:17:26;;;;;;;9.68;4.18;;;;;;;;;;5040590;28;20044;-66
2023/07/03 12:19:56;;;;;;;6.75;3.35;;;;;;;;;;5056428;28;20071;-66
2023/07/03 12:22:26;;;;;;;8.15;3.97;;;;;;;;;;5059095;28;20055;-68
2023/07/03 12:25:01;;;;;;;11.45;4.07;;;;;;;;;;5059455;28;20138;-67
2023/07/03 12:27:30;;;;;;;8.20;3.75;;;;;;;;;;5059460;28;20078;-68
2023/07/03 12:29:59;;;;;;;9.80;4.10;;;;;;;;;;5060878;28;20095;-64
2023/07/03 12:32:29;;;;;;;10.55;3.95;;;;;;;;;;5059014;28;20064;-62
2023/07/03 12:35:10;;;;;;;9.00;3.63;;;;;;;;;;5060997;28;20048;-63
2023/07/03 12:37:43;;;;;;;8.60;3.55;;;;;;;;;;5058475;28;20059;-63
2023/07/03 12:40:13;;;;;;;7.07;4.03;;;;;;;;;;5061135;28;20447;-65
2023/07/03 12:42:41;;;;;;;6.78;3.55;;;;;;;;;;5062127;28;20048;-63
2023/07/03 12:45:14;;;;;;;8.50;3.55;;;;;;;;;;5059759;28;20110;-63
2023/07/03 12:47:43;;;;;;;9.10;3.80;;;;;;;;;;5057585;28;20052;-66
2023/07/03 12:50:15;;;;;;;8.95;3.97;;;;;;;;;;5057173;28;20058;-63
2023/07/03 12:52:45;;;;;;;8.32;3.42;;;;;;;;;;5062340;28;20064;-63
2023/07/03 12:55:13;;;;;;;9.52;3.72;;;;;;;;;;5058678;28;20047;-63
2023/07/03 12:57:44;;;;;;;8.32;3.65;;;;;;;;;;5058918;28;20488;-63
2023/07/03 13:00:17;;;;;;;9.07;3.95;;;;;;;;;;5061567;28;20052;-63
2023/07/03 13:02:46;;;;;;;8.23;3.97;;;;;;;;;;5057258;28;20052;-68
2023/07/03 13:05:19;;;;;;;7.93;3.60;;;;;;;;;;5058145;28;20279;-63
2023/07/03 13:07:51;;;;;;;6.78;3.80;;;;;;;;;;5061558;28;21989;-64
2023/07/03 13:10:20;;;;;;;9.02;3.50;;;;;;;;;;5061153;28;20090;-64
2023/07/03 13:13:04;;;;;;;8.63;3.38;;;;;;;;;;5060869;28;20053;-65
2023/07/03 13:15:33;;;;;;;7.32;3.45;;;;;;;;;;5058367;28;20064;-64
2023/07/03 13:18:07;;;;;;;10.10;4.13;;;;;;;;;;5056220;28;20060;-64
2023/07/03 13:20:36;;;;;;;6.43;3.22;;;;;;;;;;5059196;28;20072;-67
2023/07/03 13:23:07;;;;;;;12.75;3.72;;;;;;;;;;5059582;28;20055;-65
2023/07/03 13:25:36;;;;;;;8.98;3.60;;;;;;;;;;5058576;28;20048;-64
2023/07/03 13:28:06;;;;;;;5.40;2.83;;;;;;;;;;5057345;28;20106;-65
2023/07/03 13:30:35;;;;;;;8.52;3.67;;;;;;;;;;5058259;28;20048;-67
2023/07/03 13:33:05;;;;;;;10.93;3.78;;;;;;;;;;5058502;28;20540;-63
2023/07/03 13:35:36;;;;;;;16.85;4.22;;;;;;;;;;5061665;28;20057;-65
2023/07/03 13:38:20;;;;;;;9.82;3.65;;;;;;;;;;5059032;28;20443;-62
2023/07/03 13:40:49;;;;;;;9.07;3.55;;;;;;;;;;5061136;28;20406;-64
2023/07/03 13:43:22;;;;;;;5.70;2.97;;;;;;;;;;5058544;28;20067;-64
2023/07/03 13:45:50;;;;;;;6.82;3.05;;;;;;;;;;5059125;28;20152;-63
2023/07/03 13:48:19;;;;;;;12.32;3.47;;;;;;;;;;5060694;28;20044;-67
2023/07/03 13:50:49;;;;;;;8.68;3.35;;;;;;;;;;5060419;28;20194;-64
2023/07/03 13:53:18;;;;;;;7.10;3.20;;;;;;;;;;5060442;28;20056;-65
2023/07/03 13:55:47;;;;;;;6.30;3.45;;;;;;;;;;5058752;28;20064;-65
2023/07/03 13:58:16;;;;;;;7.38;3.33;;;;;;;;;;5057005;28;20103;-66
2023/07/03 14:00:44;;;;;;;9.00;3.28;;;;;;;;;;5060042;28;20047;-65
2023/07/03 14:03:15;;;;;;;8.23;3.72;;;;;;;;;;5059135;28;20049;-63
2023/07/03 14:05:44;;;;;;;7.60;3.67;;;;;;;;;;5059116;28;20052;-63
2023/07/03 14:08:14;;;;;;;8.18;3.58;;;;;;;;;;5054957;28;20052;-67
2023/07/03 14:10:44;;;;;;;9.13;3.58;;;;;;;;;;5054957;28;20548;-65
2023/07/03 14:13:13;;;;;;;7.40;3.47;;;;;;;;;;5059116;28;20052;-63
2023/07/03 14:15:42;;;;;;;9.90;4.25;;;;;;;;;;5058345;28;20425;-63
2023/07/03 14:18:10;;;;;;;8.18;4.10;;;;;;;;;;5061300;28;20056;-65
2023/07/03 14:20:39;;;;;;;9.98;3.60;;;;;;;;;;5056846;28;20047;-64
2023/07/03 14:23:08;;;;;;;7.05;3.40;;;;;;;;;;5054048;28;20102;-63
2023/07/03 14:25:37;;;;;;;10.52;4.22;;;;;;;;;;5056601;28;20044;-64
2023/07/03 14:28:07;;;;;;;9.70;4.32;;;;;;;;;;5058661;28;20044;-63
2023/07/03 14:30:35;;;;;;;11.18;3.80;;;;;;;;;;5059356;28;20049;-63
2023/07/03 14:33:04;;;;;;;12.68;3.83;;;;;;;;;;5062837;28;20061;-63
2023/07/03 14:35:33;;;;;;;8.55;3.90;;;;;;;;;;5056201;28;20041;-66
2023/07/03 14:38:01;;;;;;;7.72;3.92;;;;;;;;;;5061562;28;20433;-63
2023/07/03 14:40:29;;;;;;;10.90;3.63;;;;;;;;;;5057927;28;20505;-68
2023/07/03 14:42:58;;;;;;;13.02;3.88;;;;;;;;;;5055955;28;20045;-65
2023/07/03 14:45:28;;;;;;;7.53;3.45;;;;;;;;;;5056891;28;20045;-64
2023/07/03 14:47:56;;;;;;;7.97;3.53;;;;;;;;;;5056847;28;20137;-66
2023/07/03 14:50:25;;;;;;;8.13;3.47;;;;;;;;;;5058058;28;20068;-66